N3368K KGMU-MBNC
Flight info
| Callsign | N3368K |
|---|---|
| Flight time | 2h 18m |
| Altitude | 40000 |
| Route | HRTWL Q77 TEUFL/N0384F390 Q77 SHRKS Q89 MANLE Y185 VENDS Y306 CHASO |
| Aircraft | C25C/L-SDFGRWY/S |
Departure
| Time | 2026-04-28 18:59 |
|---|---|
| Airport | Greenville Downtown Airport (KGMU) |
Arrival
| Time | 2026-04-28 21:17 |
|---|---|
| Airport | North Caicos Airport (MBNC) |
| Time | Latitude | Longitude | Altitude | Speed | Heading |
|---|---|---|---|---|---|
| 2026-04-28 18:38 | 34.85147 | -82.35088 | 1022 ft | 0 kts | 57° |
| 2026-04-28 18:55 | 34.85149 | -82.35080 | 1022 ft | 5 kts | 82° |
| 2026-04-28 18:55 | 34.85126 | -82.35044 | 1021 ft | 12 kts | 138° |
| 2026-04-28 18:55 | 34.85095 | -82.34906 | 1021 ft | 13 kts | 90° |
| 2026-04-28 18:55 | 34.85093 | -82.34799 | 1022 ft | 12 kts | 91° |
| 2026-04-28 18:56 | 34.85053 | -82.34733 | 1023 ft | 11 kts | 178° |
| 2026-04-28 18:56 | 34.84975 | -82.34737 | 1023 ft | 11 kts | 183° |
| 2026-04-28 18:56 | 34.84892 | -82.34737 | 1022 ft | 13 kts | 180° |
| 2026-04-28 18:56 | 34.84841 | -82.34683 | 1023 ft | 9 kts | 91° |
| 2026-04-28 18:57 | 34.84842 | -82.34612 | 1028 ft | 10 kts | 94° |
| 2026-04-28 18:57 | 34.84825 | -82.34557 | 1031 ft | 0 kts | 164° |
| 2026-04-28 18:58 | 34.84800 | -82.34558 | 1031 ft | 11 kts | 198° |
| 2026-04-28 18:58 | 34.84785 | -82.34593 | 1030 ft | 0 kts | 268° |
| 2026-04-28 18:58 | 34.84785 | -82.34651 | 1027 ft | 35 kts | 270° |
| 2026-04-28 18:58 | 34.84789 | -82.35387 | 1050 ft | 131 kts | 268° |
| 2026-04-28 18:59 | 34.84755 | -82.36701 | 1592 ft | 183 kts | 266° |
| 2026-04-28 18:59 | 34.84723 | -82.38438 | 2475 ft | 225 kts | 268° |
| 2026-04-28 18:59 | 34.84730 | -82.40334 | 3788 ft | 223 kts | 269° |
| 2026-04-28 18:59 | 34.84759 | -82.42272 | 4888 ft | 230 kts | 280° |
| 2026-04-28 19:00 | 34.85181 | -82.44179 | 5882 ft | 238 kts | 284° |
| 2026-04-28 19:00 | 34.85608 | -82.46135 | 6759 ft | 246 kts | 285° |
| 2026-04-28 19:00 | 34.86092 | -82.48191 | 7709 ft | 251 kts | 283° |
| 2026-04-28 19:00 | 34.85963 | -82.50283 | 8631 ft | 258 kts | 245° |
| 2026-04-28 19:01 | 34.84673 | -82.51837 | 9555 ft | 272 kts | 212° |
| 2026-04-28 19:01 | 34.82786 | -82.52301 | 10436 ft | 287 kts | 182° |
| 2026-04-28 19:01 | 34.80794 | -82.51900 | 11273 ft | 297 kts | 161° |
| 2026-04-28 19:01 | 34.78948 | -82.50700 | 12068 ft | 305 kts | 154° |
| 2026-04-28 19:02 | 34.77064 | -82.49455 | 12850 ft | 312 kts | 154° |
| 2026-04-28 19:02 | 34.75160 | -82.48155 | 13631 ft | 317 kts | 155° |
| 2026-04-28 19:02 | 34.73198 | -82.46877 | 14388 ft | 322 kts | 156° |
| 2026-04-28 19:02 | 34.71212 | -82.45569 | 15121 ft | 326 kts | 156° |
| 2026-04-28 19:03 | 34.69204 | -82.44257 | 15829 ft | 331 kts | 155° |
| 2026-04-28 19:03 | 34.67169 | -82.42906 | 16529 ft | 335 kts | 155° |
| 2026-04-28 19:03 | 34.65123 | -82.41568 | 17229 ft | 340 kts | 155° |
| 2026-04-28 19:03 | 34.63034 | -82.40189 | 17953 ft | 344 kts | 156° |
| 2026-04-28 19:04 | 34.60914 | -82.38805 | 18620 ft | 349 kts | 155° |
| 2026-04-28 19:04 | 34.58762 | -82.37386 | 19241 ft | 352 kts | 156° |
| 2026-04-28 19:04 | 34.56598 | -82.35971 | 19884 ft | 355 kts | 156° |
| 2026-04-28 19:04 | 34.54412 | -82.34534 | 20560 ft | 358 kts | 157° |
| 2026-04-28 19:05 | 34.52213 | -82.33096 | 21233 ft | 361 kts | 157° |
| 2026-04-28 19:05 | 34.49992 | -82.31640 | 21878 ft | 364 kts | 157° |
| 2026-04-28 19:05 | 34.47761 | -82.30182 | 22553 ft | 365 kts | 157° |
| 2026-04-28 19:05 | 34.45521 | -82.28713 | 23214 ft | 367 kts | 157° |
| 2026-04-28 19:06 | 34.43261 | -82.27242 | 23856 ft | 370 kts | 157° |
| 2026-04-28 19:06 | 34.41756 | -82.26253 | 24201 ft | 372 kts | 157° |
| 2026-04-28 19:06 | 34.38712 | -82.24270 | 24893 ft | 377 kts | 157° |
| 2026-04-28 19:06 | 34.36396 | -82.22760 | 25419 ft | 380 kts | 158° |
| 2026-04-28 19:07 | 34.34061 | -82.21236 | 25932 ft | 383 kts | 157° |
| 2026-04-28 19:07 | 34.31701 | -82.19699 | 26438 ft | 387 kts | 158° |
| 2026-04-28 19:07 | 34.29318 | -82.18146 | 26947 ft | 390 kts | 158° |
| 2026-04-28 19:07 | 34.26919 | -82.16591 | 27446 ft | 393 kts | 158° |
| 2026-04-28 19:08 | 34.24386 | -82.15489 | 27915 ft | 382 kts | 178° |
| 2026-04-28 19:08 | 34.21748 | -82.15173 | 28381 ft | 381 kts | 182° |
| 2026-04-28 19:08 | 34.19103 | -82.14979 | 28948 ft | 379 kts | 185° |
| 2026-04-28 19:08 | 34.16470 | -82.14872 | 29585 ft | 378 kts | 185° |
| 2026-04-28 19:09 | 34.13846 | -82.14708 | 30237 ft | 378 kts | 184° |
| 2026-04-28 19:09 | 34.11218 | -82.14513 | 30788 ft | 377 kts | 184° |
| 2026-04-28 19:09 | 34.08615 | -82.14333 | 31357 ft | 374 kts | 184° |
| 2026-04-28 19:09 | 34.06024 | -82.14169 | 31900 ft | 372 kts | 184° |
| 2026-04-28 19:10 | 34.03444 | -82.14007 | 32451 ft | 370 kts | 185° |
| 2026-04-28 19:10 | 34.00874 | -82.13833 | 33018 ft | 368 kts | 185° |
| 2026-04-28 19:10 | 33.98329 | -82.13666 | 33585 ft | 365 kts | 185° |
| 2026-04-28 19:10 | 33.95805 | -82.13502 | 34125 ft | 363 kts | 185° |
| 2026-04-28 19:11 | 33.93284 | -82.13337 | 34620 ft | 361 kts | 185° |
| 2026-04-28 19:11 | 33.90777 | -82.13171 | 35100 ft | 359 kts | 185° |
| 2026-04-28 19:11 | 33.88317 | -82.13010 | 35560 ft | 357 kts | 185° |
| 2026-04-28 19:11 | 33.85847 | -82.12850 | 36004 ft | 355 kts | 185° |
| 2026-04-28 19:12 | 33.83387 | -82.12687 | 36442 ft | 353 kts | 185° |
| 2026-04-28 19:12 | 33.80940 | -82.12530 | 36876 ft | 351 kts | 185° |
| 2026-04-28 19:12 | 33.78509 | -82.12368 | 37305 ft | 349 kts | 185° |
| 2026-04-28 19:12 | 33.76080 | -82.12211 | 37728 ft | 348 kts | 185° |
| 2026-04-28 19:13 | 33.73675 | -82.12055 | 38152 ft | 346 kts | 186° |
| 2026-04-28 19:13 | 33.71280 | -82.11897 | 38571 ft | 344 kts | 186° |
| 2026-04-28 19:13 | 33.68890 | -82.11743 | 38942 ft | 343 kts | 186° |
| 2026-04-28 19:13 | 33.66510 | -82.11589 | 39209 ft | 344 kts | 186° |
| 2026-04-28 19:14 | 33.64113 | -82.11434 | 39450 ft | 346 kts | 186° |
| 2026-04-28 19:14 | 33.61705 | -82.11278 | 39701 ft | 347 kts | 186° |
| 2026-04-28 19:14 | 33.59280 | -82.11118 | 39948 ft | 349 kts | 186° |
| 2026-04-28 19:14 | 33.56842 | -82.10962 | 40133 ft | 353 kts | 186° |
| 2026-04-28 19:15 | 33.51821 | -82.10641 | 40226 ft | 370 kts | 185° |
| 2026-04-28 19:15 | 33.47469 | -82.10355 | 40240 ft | 383 kts | 185° |
| 2026-04-28 19:16 | 33.41105 | -82.09944 | 40234 ft | 400 kts | 184° |
| 2026-04-28 19:16 | 33.35459 | -82.09578 | 40222 ft | 412 kts | 184° |
| 2026-04-28 19:17 | 33.29667 | -82.09202 | 40225 ft | 422 kts | 184° |
| 2026-04-28 19:17 | 33.23775 | -82.08823 | 40225 ft | 430 kts | 184° |
| 2026-04-28 19:18 | 33.17751 | -82.08435 | 40224 ft | 435 kts | 184° |
| 2026-04-28 19:18 | 33.11684 | -82.08044 | 40227 ft | 436 kts | 184° |
| 2026-04-28 19:19 | 33.05615 | -82.07654 | 40227 ft | 437 kts | 184° |
| 2026-04-28 19:19 | 32.99533 | -82.07263 | 40226 ft | 437 kts | 184° |
| 2026-04-28 19:20 | 32.93447 | -82.06873 | 40224 ft | 438 kts | 184° |
| 2026-04-28 19:20 | 32.87362 | -82.06484 | 40208 ft | 438 kts | 184° |
| 2026-04-28 19:21 | 32.81296 | -82.06097 | 40211 ft | 439 kts | 184° |
| 2026-04-28 19:21 | 32.75194 | -82.05709 | 40212 ft | 439 kts | 184° |
| 2026-04-28 19:22 | 32.71103 | -82.05447 | 40214 ft | 440 kts | 184° |
| 2026-04-28 19:22 | 32.62956 | -82.04932 | 40212 ft | 440 kts | 184° |
| 2026-04-28 19:23 | 32.57876 | -82.04608 | 40222 ft | 440 kts | 184° |
| 2026-04-28 19:23 | 32.51747 | -82.04220 | 40228 ft | 441 kts | 184° |
| 2026-04-28 19:24 | 32.45609 | -82.03832 | 40235 ft | 441 kts | 184° |
| 2026-04-28 19:24 | 32.38487 | -82.03593 | 40235 ft | 440 kts | 185° |
| 2026-04-28 19:25 | 32.33351 | -82.03402 | 40222 ft | 440 kts | 185° |
| 2026-04-28 19:25 | 32.27223 | -82.03195 | 40227 ft | 441 kts | 185° |
| 2026-04-28 19:26 | 32.21127 | -82.02982 | 40228 ft | 441 kts | 185° |
| 2026-04-28 19:26 | 32.14960 | -82.02770 | 40229 ft | 441 kts | 185° |
| 2026-04-28 19:27 | 32.08855 | -82.02558 | 40218 ft | 441 kts | 184° |
| 2026-04-28 19:27 | 32.02721 | -82.02344 | 40224 ft | 441 kts | 184° |
| 2026-04-28 19:28 | 31.96590 | -82.02134 | 40224 ft | 441 kts | 184° |
| 2026-04-28 19:28 | 31.90439 | -82.01923 | 40228 ft | 442 kts | 184° |
| 2026-04-28 19:29 | 31.85288 | -82.01507 | 40227 ft | 448 kts | 176° |
| 2026-04-28 19:29 | 31.78143 | -82.00046 | 40229 ft | 448 kts | 175° |
| 2026-04-28 19:30 | 31.71989 | -81.98787 | 40233 ft | 449 kts | 175° |
| 2026-04-28 19:30 | 31.65818 | -81.97529 | 40236 ft | 450 kts | 175° |
| 2026-04-28 19:31 | 31.59636 | -81.96269 | 40235 ft | 450 kts | 175° |
| 2026-04-28 19:31 | 31.53454 | -81.95010 | 40233 ft | 451 kts | 175° |
| 2026-04-28 19:32 | 31.47277 | -81.93754 | 40235 ft | 451 kts | 175° |
| 2026-04-28 19:32 | 31.41080 | -81.92494 | 40237 ft | 452 kts | 175° |
| 2026-04-28 19:33 | 31.34880 | -81.91236 | 40242 ft | 452 kts | 175° |
| 2026-04-28 19:33 | 31.28680 | -81.89980 | 40245 ft | 452 kts | 175° |
| 2026-04-28 19:34 | 31.22475 | -81.88727 | 40251 ft | 452 kts | 175° |
| 2026-04-28 19:34 | 31.16271 | -81.87474 | 40251 ft | 452 kts | 175° |
| 2026-04-28 19:35 | 31.10070 | -81.86224 | 40256 ft | 453 kts | 175° |
| 2026-04-28 19:35 | 31.03860 | -81.84971 | 40257 ft | 453 kts | 175° |
| 2026-04-28 19:36 | 30.97689 | -81.83729 | 40247 ft | 453 kts | 174° |
| 2026-04-28 19:36 | 30.91473 | -81.82479 | 40267 ft | 453 kts | 175° |
| 2026-04-28 19:37 | 30.86309 | -81.81443 | 40263 ft | 453 kts | 174° |
| 2026-04-28 19:37 | 30.79031 | -81.79986 | 40253 ft | 453 kts | 175° |
| 2026-04-28 19:38 | 30.72812 | -81.78742 | 40242 ft | 454 kts | 175° |
| 2026-04-28 19:38 | 30.66581 | -81.77465 | 40228 ft | 455 kts | 171° |
| 2026-04-28 19:39 | 30.60593 | -81.74926 | 40212 ft | 463 kts | 156° |
| 2026-04-28 19:39 | 30.55146 | -81.70847 | 40205 ft | 467 kts | 148° |
| 2026-04-28 19:40 | 30.49802 | -81.66554 | 40207 ft | 468 kts | 148° |
| 2026-04-28 19:40 | 30.44461 | -81.62246 | 40216 ft | 468 kts | 148° |
| 2026-04-28 19:41 | 30.39100 | -81.57938 | 40223 ft | 468 kts | 148° |
| 2026-04-28 19:41 | 30.33743 | -81.53633 | 40227 ft | 469 kts | 148° |
| 2026-04-28 19:42 | 30.28418 | -81.49364 | 40229 ft | 469 kts | 148° |
| 2026-04-28 19:42 | 30.23913 | -81.45755 | 40229 ft | 469 kts | 148° |
| 2026-04-28 19:43 | 30.17676 | -81.40769 | 40226 ft | 469 kts | 148° |
| 2026-04-28 19:43 | 30.12301 | -81.36477 | 40230 ft | 470 kts | 148° |
| 2026-04-28 19:44 | 30.06923 | -81.32187 | 40221 ft | 470 kts | 148° |
| 2026-04-28 19:44 | 30.01532 | -81.27893 | 40234 ft | 471 kts | 148° |
| 2026-04-28 19:45 | 29.98836 | -81.25748 | 40434 ft | 467 kts | 148° |
| 2026-04-28 19:45 | 29.96183 | -81.23635 | 40695 ft | 464 kts | 148° |
| 2026-04-28 19:45 | 29.93540 | -81.21538 | 41086 ft | 458 kts | 148° |
| 2026-04-28 19:45 | 29.90905 | -81.19445 | 41198 ft | 461 kts | 148° |
| 2026-04-28 19:46 | 29.85551 | -81.15200 | 41207 ft | 471 kts | 148° |
| 2026-04-28 19:46 | 29.79932 | -81.11355 | 41200 ft | 469 kts | 159° |
| 2026-04-28 19:47 | 29.73903 | -81.08500 | 41201 ft | 468 kts | 161° |
| 2026-04-28 19:47 | 29.67873 | -81.05634 | 41185 ft | 469 kts | 161° |
| 2026-04-28 19:48 | 29.61829 | -81.02787 | 41190 ft | 470 kts | 161° |
| 2026-04-28 19:48 | 29.55784 | -80.99930 | 41192 ft | 470 kts | 161° |
| 2026-04-28 19:49 | 29.49733 | -80.97079 | 41200 ft | 470 kts | 161° |
| 2026-04-28 19:49 | 29.43671 | -80.94225 | 41196 ft | 471 kts | 161° |
| 2026-04-28 19:50 | 29.34566 | -80.89948 | 41208 ft | 472 kts | 161° |
| 2026-04-28 19:51 | 29.28530 | -80.87115 | 41208 ft | 472 kts | 161° |
| 2026-04-28 19:51 | 29.22448 | -80.84268 | 41189 ft | 472 kts | 161° |
| 2026-04-28 19:52 | 29.16370 | -80.81424 | 41201 ft | 472 kts | 161° |
| 2026-04-28 19:52 | 29.10279 | -80.78577 | 41202 ft | 473 kts | 161° |
| 2026-04-28 19:53 | 29.04187 | -80.75733 | 41199 ft | 473 kts | 161° |
| 2026-04-28 19:53 | 28.98082 | -80.72887 | 41195 ft | 474 kts | 161° |
| 2026-04-28 19:54 | 28.92005 | -80.69970 | 41166 ft | 476 kts | 156° |
| 2026-04-28 19:54 | 28.86487 | -80.65727 | 41169 ft | 482 kts | 141° |
| 2026-04-28 19:55 | 28.82017 | -80.60008 | 41154 ft | 485 kts | 124° |
| 2026-04-28 19:55 | 28.78284 | -80.53606 | 41163 ft | 485 kts | 123° |
| 2026-04-28 19:56 | 28.74550 | -80.47202 | 41164 ft | 485 kts | 123° |
| 2026-04-28 19:56 | 28.70839 | -80.40851 | 41159 ft | 485 kts | 123° |
| 2026-04-28 19:57 | 28.67069 | -80.34483 | 41160 ft | 485 kts | 124° |
| 2026-04-28 19:57 | 28.63292 | -80.28122 | 41154 ft | 485 kts | 124° |
| 2026-04-28 19:58 | 28.59515 | -80.21754 | 41137 ft | 485 kts | 124° |
| 2026-04-28 19:58 | 28.55727 | -80.15390 | 41148 ft | 485 kts | 124° |
| 2026-04-28 19:59 | 28.51942 | -80.09032 | 41146 ft | 485 kts | 124° |
| 2026-04-28 19:59 | 28.48150 | -80.02682 | 41147 ft | 485 kts | 124° |
| 2026-04-28 20:00 | 28.44356 | -79.96331 | 41147 ft | 485 kts | 124° |
| 2026-04-28 20:00 | 28.40561 | -79.89994 | 41147 ft | 485 kts | 124° |
| 2026-04-28 20:01 | 28.36797 | -79.83711 | 41148 ft | 485 kts | 124° |
| 2026-04-28 20:01 | 28.32998 | -79.77381 | 41151 ft | 485 kts | 124° |
| 2026-04-28 20:02 | 28.29194 | -79.71050 | 41151 ft | 485 kts | 124° |
| 2026-04-28 20:02 | 28.25396 | -79.64744 | 41136 ft | 484 kts | 124° |
| 2026-04-28 20:03 | 28.21589 | -79.58430 | 41135 ft | 484 kts | 124° |
| 2026-04-28 20:03 | 28.17779 | -79.52121 | 41135 ft | 484 kts | 124° |
| 2026-04-28 20:04 | 28.13976 | -79.45830 | 41134 ft | 484 kts | 124° |
| 2026-04-28 20:04 | 28.10168 | -79.39540 | 41149 ft | 484 kts | 124° |
| 2026-04-28 20:05 | 28.06360 | -79.33261 | 41147 ft | 484 kts | 124° |
| 2026-04-28 20:05 | 28.02544 | -79.26976 | 41147 ft | 484 kts | 124° |
| 2026-04-28 20:06 | 27.98759 | -79.20755 | 41145 ft | 483 kts | 124° |
| 2026-04-28 20:06 | 27.94943 | -79.14492 | 41145 ft | 483 kts | 124° |
| 2026-04-28 20:07 | 27.91124 | -79.08232 | 41128 ft | 483 kts | 124° |
| 2026-04-28 20:07 | 27.87946 | -79.03028 | 41141 ft | 483 kts | 124° |
| 2026-04-28 20:08 | 27.84128 | -78.96787 | 41137 ft | 483 kts | 124° |
| 2026-04-28 20:08 | 27.80284 | -78.90508 | 41137 ft | 483 kts | 124° |
| 2026-04-28 20:09 | 27.76462 | -78.84277 | 41138 ft | 482 kts | 124° |
| 2026-04-28 20:09 | 27.72661 | -78.78088 | 41135 ft | 482 kts | 124° |
| 2026-04-28 20:10 | 27.68833 | -78.71868 | 41134 ft | 482 kts | 124° |
| 2026-04-28 20:10 | 27.65001 | -78.65648 | 41133 ft | 482 kts | 125° |
| 2026-04-28 20:11 | 27.61298 | -78.59341 | 41135 ft | 482 kts | 123° |
| 2026-04-28 20:11 | 27.57602 | -78.53039 | 41116 ft | 482 kts | 123° |
| 2026-04-28 20:12 | 27.53917 | -78.46719 | 41116 ft | 482 kts | 123° |
| 2026-04-28 20:12 | 27.50230 | -78.40424 | 41116 ft | 482 kts | 123° |
| 2026-04-28 20:13 | 27.46540 | -78.34127 | 41113 ft | 482 kts | 123° |
| 2026-04-28 20:13 | 27.42843 | -78.27831 | 41113 ft | 481 kts | 123° |
| 2026-04-28 20:14 | 27.39173 | -78.21589 | 41113 ft | 481 kts | 123° |
| 2026-04-28 20:14 | 27.35474 | -78.15306 | 41113 ft | 481 kts | 123° |
| 2026-04-28 20:15 | 27.31322 | -78.09420 | 41112 ft | 481 kts | 132° |
| 2026-04-28 20:15 | 27.26900 | -78.03775 | 41113 ft | 481 kts | 132° |
| 2026-04-28 20:16 | 27.22464 | -77.98148 | 41113 ft | 481 kts | 132° |
| 2026-04-28 20:16 | 27.18035 | -77.92523 | 41123 ft | 481 kts | 132° |
| 2026-04-28 20:17 | 27.13590 | -77.86895 | 41120 ft | 481 kts | 132° |
| 2026-04-28 20:17 | 27.09149 | -77.81277 | 41121 ft | 481 kts | 132° |
| 2026-04-28 20:18 | 27.04701 | -77.75656 | 41119 ft | 481 kts | 132° |
| 2026-04-28 20:18 | 27.00253 | -77.70041 | 41120 ft | 481 kts | 132° |
| 2026-04-28 20:19 | 26.95832 | -77.64466 | 41120 ft | 482 kts | 132° |
| 2026-04-28 20:19 | 26.91379 | -77.58860 | 41117 ft | 482 kts | 133° |
| 2026-04-28 20:20 | 26.86916 | -77.53249 | 41120 ft | 482 kts | 133° |
| 2026-04-28 20:20 | 26.82458 | -77.47652 | 41120 ft | 482 kts | 133° |
| 2026-04-28 20:21 | 26.77992 | -77.42054 | 41114 ft | 482 kts | 133° |
| 2026-04-28 20:21 | 26.73527 | -77.36461 | 41115 ft | 482 kts | 133° |
| 2026-04-28 20:22 | 26.69059 | -77.30870 | 41116 ft | 482 kts | 133° |
| 2026-04-28 20:22 | 26.64589 | -77.25285 | 41117 ft | 482 kts | 133° |
| 2026-04-28 20:23 | 26.60111 | -77.19698 | 41114 ft | 482 kts | 133° |
| 2026-04-28 20:23 | 26.55662 | -77.14154 | 41104 ft | 482 kts | 133° |
| 2026-04-28 20:24 | 26.51183 | -77.08582 | 41106 ft | 482 kts | 133° |
| 2026-04-28 20:24 | 26.46702 | -77.03012 | 41109 ft | 482 kts | 133° |
| 2026-04-28 20:25 | 26.42223 | -76.97452 | 41107 ft | 482 kts | 133° |
| 2026-04-28 20:25 | 26.37737 | -76.91890 | 41107 ft | 482 kts | 133° |
| 2026-04-28 20:26 | 26.33254 | -76.86337 | 41122 ft | 482 kts | 133° |
| 2026-04-28 20:26 | 26.28761 | -76.80780 | 41122 ft | 482 kts | 133° |
| 2026-04-28 20:27 | 26.24274 | -76.75238 | 41105 ft | 482 kts | 133° |
| 2026-04-28 20:27 | 26.19781 | -76.69695 | 41105 ft | 482 kts | 134° |
| 2026-04-28 20:28 | 26.15274 | -76.64143 | 41105 ft | 482 kts | 134° |
| 2026-04-28 20:28 | 26.10801 | -76.58640 | 41107 ft | 482 kts | 134° |
| 2026-04-28 20:29 | 26.06298 | -76.53106 | 41104 ft | 482 kts | 134° |
| 2026-04-28 20:29 | 26.01788 | -76.47568 | 41114 ft | 482 kts | 134° |
| 2026-04-28 20:30 | 25.97311 | -76.42078 | 41110 ft | 483 kts | 134° |
| 2026-04-28 20:30 | 25.92766 | -76.36513 | 41111 ft | 483 kts | 134° |
| 2026-04-28 20:31 | 25.88245 | -76.30984 | 41098 ft | 483 kts | 134° |
| 2026-04-28 20:31 | 25.83723 | -76.25461 | 41099 ft | 483 kts | 134° |
| 2026-04-28 20:32 | 25.79225 | -76.19974 | 41100 ft | 483 kts | 134° |
| 2026-04-28 20:32 | 25.74699 | -76.14460 | 41101 ft | 483 kts | 134° |
| 2026-04-28 20:33 | 25.70175 | -76.08951 | 41109 ft | 483 kts | 134° |
| 2026-04-28 20:33 | 25.65643 | -76.03442 | 41108 ft | 483 kts | 134° |
| 2026-04-28 20:34 | 25.61105 | -75.97933 | 41107 ft | 484 kts | 134° |
| 2026-04-28 20:34 | 25.56592 | -75.92461 | 41095 ft | 484 kts | 135° |
| 2026-04-28 20:35 | 25.52051 | -75.86964 | 41096 ft | 484 kts | 134° |
| 2026-04-28 20:35 | 25.47506 | -75.81464 | 41096 ft | 484 kts | 134° |
| 2026-04-28 20:36 | 25.42965 | -75.75978 | 41104 ft | 484 kts | 135° |
| 2026-04-28 20:36 | 25.38417 | -75.70487 | 41105 ft | 484 kts | 135° |
| 2026-04-28 20:37 | 25.33865 | -75.65000 | 41106 ft | 484 kts | 135° |
| 2026-04-28 20:37 | 25.29312 | -75.59519 | 41107 ft | 484 kts | 135° |
| 2026-04-28 20:38 | 25.24782 | -75.54074 | 41105 ft | 484 kts | 135° |
| 2026-04-28 20:38 | 25.20229 | -75.48606 | 41095 ft | 484 kts | 135° |
| 2026-04-28 20:39 | 25.15666 | -75.43133 | 41098 ft | 484 kts | 135° |
| 2026-04-28 20:39 | 25.11107 | -75.37670 | 41109 ft | 484 kts | 136° |
| 2026-04-28 20:40 | 25.06550 | -75.32214 | 41106 ft | 484 kts | 136° |
| 2026-04-28 20:40 | 25.01986 | -75.26758 | 41108 ft | 483 kts | 136° |
| 2026-04-28 20:41 | 24.97427 | -75.21315 | 41108 ft | 483 kts | 136° |
| 2026-04-28 20:41 | 24.92864 | -75.15876 | 41109 ft | 483 kts | 136° |
| 2026-04-28 20:42 | 24.88294 | -75.10432 | 41087 ft | 483 kts | 136° |
| 2026-04-28 20:42 | 24.83728 | -75.05000 | 41097 ft | 483 kts | 137° |
| 2026-04-28 20:43 | 24.79163 | -74.99577 | 41101 ft | 483 kts | 137° |
| 2026-04-28 20:43 | 24.74593 | -74.94152 | 41098 ft | 483 kts | 137° |
| 2026-04-28 20:44 | 24.70020 | -74.88728 | 41099 ft | 483 kts | 137° |
| 2026-04-28 20:44 | 24.65473 | -74.83343 | 41101 ft | 483 kts | 137° |
| 2026-04-28 20:45 | 24.60900 | -74.77933 | 41099 ft | 483 kts | 137° |
| 2026-04-28 20:45 | 24.56320 | -74.72523 | 41096 ft | 483 kts | 137° |
| 2026-04-28 20:46 | 24.51736 | -74.67114 | 41087 ft | 483 kts | 137° |
| 2026-04-28 20:46 | 24.47152 | -74.61711 | 41085 ft | 483 kts | 137° |
| 2026-04-28 20:47 | 24.42568 | -74.56315 | 41087 ft | 483 kts | 137° |
| 2026-04-28 20:47 | 24.37986 | -74.50924 | 41088 ft | 483 kts | 137° |
| 2026-04-28 20:48 | 24.33426 | -74.45567 | 41093 ft | 483 kts | 137° |
| 2026-04-28 20:48 | 24.28838 | -74.40182 | 41097 ft | 483 kts | 137° |
| 2026-04-28 20:49 | 24.24250 | -74.34805 | 41105 ft | 483 kts | 137° |
| 2026-04-28 20:49 | 24.19653 | -74.29425 | 41102 ft | 483 kts | 137° |
| 2026-04-28 20:50 | 24.15058 | -74.24052 | 41088 ft | 483 kts | 137° |
| 2026-04-28 20:50 | 24.10460 | -74.18682 | 41085 ft | 483 kts | 137° |
| 2026-04-28 20:51 | 24.05872 | -74.13328 | 41081 ft | 482 kts | 137° |
| 2026-04-28 20:51 | 24.01273 | -74.07966 | 41081 ft | 482 kts | 137° |
| 2026-04-28 20:52 | 23.96709 | -74.02652 | 41081 ft | 482 kts | 137° |
| 2026-04-28 20:52 | 23.92082 | -73.97272 | 41083 ft | 482 kts | 137° |
| 2026-04-28 20:53 | 23.85218 | -73.89301 | 41080 ft | 482 kts | 137° |
| 2026-04-28 20:53 | 23.80622 | -73.83970 | 41080 ft | 482 kts | 137° |
| 2026-04-28 20:54 | 23.76022 | -73.78642 | 41077 ft | 482 kts | 137° |
| 2026-04-28 20:54 | 23.71424 | -73.73323 | 41077 ft | 482 kts | 137° |
| 2026-04-28 20:55 | 23.67598 | -73.68900 | 41077 ft | 482 kts | 137° |
| 2026-04-28 20:55 | 23.62987 | -73.63576 | 41075 ft | 482 kts | 137° |
| 2026-04-28 20:56 | 23.58387 | -73.58272 | 41075 ft | 482 kts | 137° |
| 2026-04-28 20:56 | 23.53778 | -73.52959 | 41075 ft | 482 kts | 137° |
| 2026-04-28 20:57 | 23.49166 | -73.47650 | 41076 ft | 482 kts | 137° |
| 2026-04-28 20:57 | 23.44568 | -73.42362 | 41069 ft | 481 kts | 138° |
| 2026-04-28 20:58 | 23.39968 | -73.37080 | 41069 ft | 480 kts | 138° |
| 2026-04-28 20:58 | 23.35367 | -73.31803 | 41070 ft | 480 kts | 138° |
| 2026-04-28 20:59 | 23.30796 | -73.26566 | 41068 ft | 480 kts | 138° |
| 2026-04-28 20:59 | 23.26171 | -73.21271 | 41068 ft | 480 kts | 138° |
| 2026-04-28 21:00 | 23.21601 | -73.16042 | 41069 ft | 480 kts | 138° |
| 2026-04-28 21:00 | 23.17000 | -73.10787 | 41066 ft | 480 kts | 138° |
| 2026-04-28 21:01 | 23.12398 | -73.05534 | 41063 ft | 479 kts | 138° |
| 2026-04-28 21:01 | 23.07800 | -73.00295 | 41063 ft | 479 kts | 139° |
| 2026-04-28 21:02 | 23.03195 | -72.95052 | 41058 ft | 479 kts | 139° |
| 2026-04-28 21:02 | 22.98594 | -72.89818 | 41058 ft | 479 kts | 139° |
| 2026-04-28 21:03 | 22.93993 | -72.84591 | 41062 ft | 479 kts | 139° |
| 2026-04-28 21:03 | 22.89394 | -72.79370 | 41060 ft | 479 kts | 139° |
| 2026-04-28 21:04 | 22.84421 | -72.74729 | 40331 ft | 475 kts | 153° |
| 2026-04-28 21:04 | 22.81598 | -72.72921 | 39402 ft | 468 kts | 158° |
| 2026-04-28 21:04 | 22.78753 | -72.71235 | 38440 ft | 463 kts | 158° |
| 2026-04-28 21:05 | 22.75983 | -72.69458 | 37397 ft | 463 kts | 153° |
| 2026-04-28 21:05 | 22.73352 | -72.67430 | 36292 ft | 463 kts | 150° |
| 2026-04-28 21:05 | 22.70796 | -72.65340 | 35235 ft | 458 kts | 150° |
| 2026-04-28 21:05 | 22.68189 | -72.63398 | 34219 ft | 450 kts | 154° |
| 2026-04-28 21:06 | 22.65570 | -72.61570 | 33088 ft | 445 kts | 153° |
| 2026-04-28 21:06 | 22.63014 | -72.59695 | 31976 ft | 441 kts | 151° |
| 2026-04-28 21:06 | 22.60519 | -72.57802 | 30919 ft | 436 kts | 150° |
| 2026-04-28 21:06 | 22.58034 | -72.55956 | 29848 ft | 430 kts | 150° |
| 2026-04-28 21:07 | 22.55559 | -72.54147 | 28954 ft | 423 kts | 150° |
| 2026-04-28 21:07 | 22.53206 | -72.52408 | 28949 ft | 397 kts | 150° |
| 2026-04-28 21:07 | 22.50992 | -72.50771 | 28944 ft | 375 kts | 150° |
| 2026-04-28 21:07 | 22.48921 | -72.49240 | 28938 ft | 357 kts | 151° |
| 2026-04-28 21:08 | 22.46853 | -72.47728 | 28545 ft | 368 kts | 150° |
| 2026-04-28 21:08 | 22.44647 | -72.46117 | 27519 ft | 397 kts | 150° |
| 2026-04-28 21:08 | 22.42301 | -72.44387 | 26554 ft | 419 kts | 149° |
| 2026-04-28 21:08 | 22.39817 | -72.42545 | 25612 ft | 434 kts | 148° |
| 2026-04-28 21:09 | 22.37321 | -72.40708 | 24725 ft | 445 kts | 148° |
| 2026-04-28 21:09 | 22.34730 | -72.38799 | 23841 ft | 440 kts | 147° |
| 2026-04-28 21:09 | 22.32265 | -72.36990 | 22865 ft | 429 kts | 147° |
| 2026-04-28 21:09 | 22.29821 | -72.35187 | 21856 ft | 421 kts | 147° |
| 2026-04-28 21:10 | 22.27420 | -72.33430 | 20885 ft | 414 kts | 147° |
| 2026-04-28 21:10 | 22.25057 | -72.31689 | 19941 ft | 409 kts | 147° |
| 2026-04-28 21:10 | 22.22711 | -72.29974 | 19016 ft | 404 kts | 147° |
| 2026-04-28 21:10 | 22.20406 | -72.28276 | 18090 ft | 400 kts | 147° |
| 2026-04-28 21:11 | 22.18116 | -72.26603 | 17076 ft | 396 kts | 147° |
| 2026-04-28 21:11 | 22.15848 | -72.24933 | 16091 ft | 392 kts | 147° |
| 2026-04-28 21:11 | 22.13605 | -72.23296 | 15143 ft | 387 kts | 147° |
| 2026-04-28 21:11 | 22.11392 | -72.21668 | 14218 ft | 384 kts | 147° |
| 2026-04-28 21:12 | 22.09191 | -72.20063 | 13246 ft | 379 kts | 147° |
| 2026-04-28 21:12 | 22.07028 | -72.18473 | 12206 ft | 372 kts | 147° |
| 2026-04-28 21:12 | 22.04935 | -72.16946 | 11014 ft | 355 kts | 147° |
| 2026-04-28 21:12 | 22.02931 | -72.15475 | 9857 ft | 341 kts | 147° |
| 2026-04-28 21:13 | 22.00998 | -72.14066 | 8605 ft | 330 kts | 147° |
| 2026-04-28 21:13 | 21.99137 | -72.12704 | 7396 ft | 310 kts | 146° |
| 2026-04-28 21:13 | 21.97472 | -72.11490 | 6198 ft | 272 kts | 146° |
| 2026-04-28 21:13 | 21.95894 | -72.10335 | 5002 ft | 275 kts | 144° |
| 2026-04-28 21:14 | 21.94322 | -72.09193 | 4267 ft | 266 kts | 145° |
| 2026-04-28 21:14 | 21.92812 | -72.08087 | 3707 ft | 261 kts | 143° |
| 2026-04-28 21:14 | 21.91305 | -72.06986 | 3117 ft | 262 kts | 144° |
| 2026-04-28 21:14 | 21.89806 | -72.05887 | 2528 ft | 255 kts | 141° |
| 2026-04-28 21:15 | 21.88707 | -72.04477 | 1923 ft | 245 kts | 106° |
| 2026-04-28 21:15 | 21.88685 | -72.02780 | 1771 ft | 218 kts | 78° |
| 2026-04-28 21:15 | 21.89171 | -72.01255 | 1338 ft | 214 kts | 65° |
| 2026-04-28 21:15 | 21.89686 | -71.99911 | 949 ft | 175 kts | 68° |
| 2026-04-28 21:16 | 21.90091 | -71.98774 | 539 ft | 154 kts | 67° |
| 2026-04-28 21:16 | 21.90434 | -71.97743 | 264 ft | 140 kts | 66° |
| 2026-04-28 21:16 | 21.90793 | -71.96767 | 183 ft | 137 kts | 68° |
| 2026-04-28 21:16 | 21.91105 | -71.95811 | 146 ft | 135 kts | 68° |
| 2026-04-28 21:17 | 21.91424 | -71.94889 | 73 ft | 124 kts | 68° |
| 2026-04-28 21:17 | 21.91689 | -71.94140 | 12 ft | 91 kts | 67° |
| 2026-04-28 21:17 | 21.91838 | -71.93700 | 10 ft | 40 kts | 68° |
| 2026-04-28 21:17 | 21.91906 | -71.93511 | 10 ft | 25 kts | 70° |
| 2026-04-28 21:18 | 21.91943 | -71.93363 | 8 ft | 17 kts | 104° |
| 2026-04-28 21:18 | 21.91885 | -71.93333 | 9 ft | 0 kts | 211° |